CheckWX is a tool to help pilots better visualize weather data.  It is not intended as a substitute for an official pre-flight weather briefing.

05:20:34 UTC

SASA TAF
Martin Miguel De Guemes International Airport
Salta, Argentina
TAF SASA 192300Z 2000/2024 09005KT 9999 BKN025 FEW040CB TX35/2018Z TN22/2010Z PROB40 TEMPO 2008/2012 02010KT 7000 TS/RASH OVC020 FEW040CB BECMG 2014/2017 05005KT 9999 BKN030

Feb-20@
00:00 UTC

Feb-20 @ 00:00 UTC

Feb-20@
14:00 UTC

Feb-20 @ 14:00 UTC

TAF SASA 192300Z 2000/2024 09005KT 9999 BKN025 FEW040CB TX35/2018Z TN22/2010Z
Wind
  • 090° at 5 KTS
Visibility
10,000+ meters
Cloud Levels
  • Broken at 2,500' AGL
  • Few at 4,000' AGL

Feb-20@
08:00 UTC

Feb-20 @ 08:00 UTC

Feb-20@
12:00 UTC

Feb-20 @ 12:00 UTC

PROB40 TEMPO 2008/2012 02010KT 7000 TS/RASH OVC020 FEW040CB

Temporary - 40% Likelihood

Temporary - 40% Likelihood during this time.

Wind
  • 020° at 10 KTS
Visibility
7,001 meters
Conditions
Thunderstorm, Rain
Cloud Levels
  • Overcast at 2,000' AGL
  • Few at 4,000' AGL

Feb-20@
14:00 UTC

Feb-20 @ 14:00 UTC

Feb-21@
00:00 UTC

Feb-21 @ 00:00 UTC

BECMG 2014/2017 05005KT 9999 BKN030

Becoming

BecomingConditions expected by Wed, Feb 20, 2019 @ 17:00 UTC

Wind
  • 050° at 5 KTS
Visibility
10,000+ meters
Cloud Levels
  • Broken at 3,000' AGL